CYNR

METAR CYNR 200800Z AUTO 32002KT 9SM FEW180 M02/M04 A2935 RMK AO2 SLP952
METAR
LOCATION
CYNR
DATE - TIME
200800Z
WIND
320 TRUE @ 2 KNOTS
VISIBILITY
9SM
RUNWAY VISUAL RANGE
NOT REPORTED
WEATHER
CLOUDINESS
FEW180
TEMP / DEWPOINT
-2 ºC / -4 ºC
ALTIMETER
29.35 in. Hg
RECENT WEATHER
NOT REPORTED
WIND SHEAR
NOT REPORTED
REMARKS
RMK AO2 SLP952
SEA LEVEL PRESSURE: hPa

CYNR

METAR CYNR 200700Z AUTO 23004KT 9SM CLR M01/M03 A2935 RMK AO2 SLP952
METAR
LOCATION
CYNR
DATE - TIME
200700Z
WIND
230 TRUE @ 4 KNOTS
VISIBILITY
9SM
RUNWAY VISUAL RANGE
NOT REPORTED
WEATHER
CLOUDINESS
CLR
TEMP / DEWPOINT
-1 ºC / -3 ºC
ALTIMETER
29.35 in. Hg
RECENT WEATHER
NOT REPORTED
WIND SHEAR
NOT REPORTED
REMARKS
RMK AO2 SLP952
SEA LEVEL PRESSURE: hPa

CYNR

METAR CYNR 200600Z AUTO 26003KT 9SM CLR M01/M03 A2936 RMK AO2 SLP955
METAR
LOCATION
CYNR
DATE - TIME
200600Z
WIND
260 TRUE @ 3 KNOTS
VISIBILITY
9SM
RUNWAY VISUAL RANGE
NOT REPORTED
WEATHER
CLOUDINESS
CLR
TEMP / DEWPOINT
-1 ºC / -3 ºC
ALTIMETER
29.36 in. Hg
RECENT WEATHER
NOT REPORTED
WIND SHEAR
NOT REPORTED
REMARKS
RMK AO2 SLP955
SEA LEVEL PRESSURE: hPa

Your time UTC time
 
 
Weather data provided by AXYS Technologies Inc., www.axystechnologies.com
 
Station History